OYYAI EKAT-EKYT

Flight info

Callsign OYYAI
Flight time 0h 46m
Altitude 4000
Route ANHOLT SVENSTRUP
Aircraft C172/L-SFG/C

Departure

Time 2026-05-09 21:21
Airport Anholt Airfield (EKAT)

Arrival

Time 2026-05-09 22:07
Airport Aalborg Airport (EKYT)
Time Latitude Longitude Altitude Speed Heading
2026-05-09 21:15 56.70017 11.55592 22 ft 0 kts 22°
2026-05-09 21:16 56.70001 11.55605 21 ft 7 kts 200°
2026-05-09 21:16 56.69972 11.55646 21 ft 7 kts 108°
2026-05-09 21:17 56.69981 11.55690 22 ft 7 kts 17°
2026-05-09 21:17 56.70059 11.55736 22 ft 16 kts 21°
2026-05-09 21:17 56.70113 11.55796 21 ft 0 kts 129°
2026-05-09 21:17 56.70093 11.55789 21 ft 13 kts 206°
2026-05-09 21:18 56.69864 11.55598 26 ft 55 kts 197°
2026-05-09 21:18 56.69515 11.55351 175 ft 55 kts 197°
2026-05-09 21:18 56.69368 11.55242 255 ft 54 kts 195°
2026-05-09 21:20 56.69114 11.55075 428 ft 51 kts 195°
2026-05-09 21:21 56.68812 11.54723 581 ft 54 kts 212°
2026-05-09 21:21 56.68527 11.54260 760 ft 54 kts 217°
2026-05-09 21:21 56.68231 11.53759 913 ft 57 kts 216°
2026-05-09 21:21 56.67897 11.53253 1070 ft 65 kts 214°
2026-05-09 21:22 56.67542 11.52734 1251 ft 68 kts 219°
2026-05-09 21:22 56.67234 11.52019 1386 ft 75 kts 239°
2026-05-09 21:22 56.67047 11.51143 1573 ft 74 kts 246°
2026-05-09 21:22 56.66892 11.50238 1742 ft 75 kts 248°
2026-05-09 21:23 56.66796 11.49321 1935 ft 73 kts 256°
2026-05-09 21:23 56.66745 11.48418 2105 ft 74 kts 259°
2026-05-09 21:23 56.66732 11.47482 2269 ft 75 kts 266°
2026-05-09 21:23 56.66775 11.46539 2429 ft 74 kts 268°
2026-05-09 21:24 56.66800 11.45596 2561 ft 73 kts 264°
2026-05-09 21:24 56.66827 11.44657 2699 ft 76 kts 272°
2026-05-09 21:24 56.66940 11.43724 2850 ft 78 kts 276°
2026-05-09 21:24 56.67118 11.42768 2987 ft 77 kts 281°
2026-05-09 21:25 56.67296 11.41834 3109 ft 80 kts 283°
2026-05-09 21:25 56.67484 11.40892 3258 ft 79 kts 282°
2026-05-09 21:25 56.67671 11.39961 3393 ft 78 kts 281°
2026-05-09 21:25 56.67869 11.39026 3470 ft 80 kts 282°
2026-05-09 21:26 56.68044 11.38084 3581 ft 79 kts 279°
2026-05-09 21:26 56.68199 11.37128 3681 ft 78 kts 277°
2026-05-09 21:26 56.68344 11.36168 3742 ft 81 kts 275°
2026-05-09 21:26 56.68445 11.35169 3865 ft 76 kts 272°
2026-05-09 21:27 56.68544 11.34186 3965 ft 80 kts 274°
2026-05-09 21:27 56.68662 11.33165 4057 ft 84 kts 275°
2026-05-09 21:27 56.68790 11.32125 4140 ft 86 kts 274°
2026-05-09 21:27 56.68918 11.31055 4212 ft 86 kts 276°
2026-05-09 21:28 56.69112 11.29999 4276 ft 90 kts 283°
2026-05-09 21:28 56.69304 11.28936 4356 ft 88 kts 278°
2026-05-09 21:28 56.69449 11.27815 4179 ft 95 kts 275°
2026-05-09 21:28 56.69555 11.26619 3914 ft 93 kts 266°
2026-05-09 21:29 56.69572 11.25387 3485 ft 93 kts 267°
2026-05-09 21:29 56.69615 11.24139 2958 ft 96 kts 271°
2026-05-09 21:29 56.69760 11.23023 2589 ft 92 kts 282°
2026-05-09 21:29 56.69988 11.21910 2150 ft 94 kts 285°
2026-05-09 21:30 56.70212 11.20728 1556 ft 106 kts 283°
2026-05-09 21:30 56.70395 11.19456 1063 ft 103 kts 276°
2026-05-09 21:30 56.70502 11.18241 810 ft 101 kts 279°
2026-05-09 21:30 56.70665 11.17145 1026 ft 84 kts 281°
2026-05-09 21:31 56.70874 11.16108 1140 ft 83 kts 289°
2026-05-09 21:31 56.71099 11.15120 1276 ft 84 kts 285°
2026-05-09 21:31 56.71325 11.14170 1437 ft 83 kts 289°
2026-05-09 21:31 56.71529 11.13252 1632 ft 77 kts 284°
2026-05-09 21:32 56.71728 11.12344 1796 ft 76 kts 287°
2026-05-09 21:32 56.71952 11.11459 1958 ft 77 kts 288°
2026-05-09 21:32 56.72157 11.10568 2119 ft 77 kts 283°
2026-05-09 21:32 56.72351 11.09681 2282 ft 76 kts 286°
2026-05-09 21:33 56.72558 11.08798 2456 ft 73 kts 284°
2026-05-09 21:33 56.72773 11.07916 2591 ft 76 kts 287°
2026-05-09 21:33 56.72992 11.07060 2741 ft 77 kts 286°
2026-05-09 21:33 56.73205 11.06180 2894 ft 76 kts 285°
2026-05-09 21:34 56.73399 11.05286 3031 ft 76 kts 285°
2026-05-09 21:34 56.73613 11.04399 3177 ft 77 kts 285°
2026-05-09 21:34 56.73843 11.03521 3319 ft 78 kts 292°
2026-05-09 21:34 56.74155 11.02696 3460 ft 79 kts 299°
2026-05-09 21:35 56.74471 11.01877 3580 ft 80 kts 297°
2026-05-09 21:35 56.74790 11.01054 3705 ft 82 kts 307°
2026-05-09 21:35 56.75203 11.00330 3829 ft 82 kts 312°
2026-05-09 21:35 56.75638 10.99646 3948 ft 83 kts 314°
2026-05-09 21:36 56.76090 10.98982 4065 ft 84 kts 316°
2026-05-09 21:36 56.76558 10.98293 4146 ft 89 kts 315°
2026-05-09 21:36 56.77041 10.97520 4172 ft 96 kts 313°
2026-05-09 21:36 56.77551 10.96691 4180 ft 99 kts 313°
2026-05-09 21:37 56.78062 10.95857 4190 ft 102 kts 313°
2026-05-09 21:37 56.78574 10.94993 4225 ft 99 kts 312°
2026-05-09 21:37 56.79089 10.94103 4189 ft 103 kts 311°
2026-05-09 21:37 56.79592 10.93202 4192 ft 101 kts 307°
2026-05-09 21:38 56.80074 10.92247 4193 ft 101 kts 308°
2026-05-09 21:38 56.80562 10.91319 4203 ft 102 kts 307°
2026-05-09 21:38 56.81075 10.90424 4210 ft 102 kts 313°
2026-05-09 21:38 56.81576 10.89512 4205 ft 102 kts 307°
2026-05-09 21:39 56.82052 10.88562 4229 ft 100 kts 305°
2026-05-09 21:39 56.82500 10.87580 4236 ft 101 kts 302°
2026-05-09 21:39 56.82915 10.86548 4254 ft 101 kts 300°
2026-05-09 21:39 56.83327 10.85529 4266 ft 101 kts 301°
2026-05-09 21:40 56.83723 10.84475 4278 ft 101 kts 297°
2026-05-09 21:40 56.84089 10.83377 4301 ft 100 kts 292°
2026-05-09 21:40 56.84410 10.82248 4313 ft 101 kts 290°
2026-05-09 21:40 56.84698 10.81078 4344 ft 100 kts 289°
2026-05-09 21:41 56.84988 10.79918 4352 ft 101 kts 287°
2026-05-09 21:41 56.85247 10.78743 4385 ft 98 kts 281°
2026-05-09 21:41 56.85438 10.77536 4387 ft 99 kts 281°
2026-05-09 21:41 56.85642 10.76332 4407 ft 99 kts 280°
2026-05-09 21:42 56.85833 10.75111 4323 ft 107 kts 279°
2026-05-09 21:42 56.86046 10.73864 4405 ft 94 kts 283°
2026-05-09 21:42 56.86299 10.72676 4333 ft 101 kts 286°
2026-05-09 21:42 56.86557 10.71553 4370 ft 98 kts 287°
2026-05-09 21:43 56.86821 10.70380 4345 ft 98 kts 286°
2026-05-09 21:43 56.87085 10.69239 4321 ft 98 kts 288°
2026-05-09 21:43 56.87338 10.68099 4283 ft 97 kts 286°
2026-05-09 21:43 56.87604 10.66941 4249 ft 98 kts 286°
2026-05-09 21:44 56.87882 10.65824 4282 ft 93 kts 295°
2026-05-09 21:44 56.88296 10.64886 4178 ft 103 kts 306°
2026-05-09 21:44 56.88780 10.63979 4191 ft 99 kts 312°
2026-05-09 21:44 56.89310 10.63135 4160 ft 100 kts 315°
2026-05-09 21:45 56.89830 10.62302 4123 ft 100 kts 311°
2026-05-09 21:45 56.90294 10.61387 4098 ft 98 kts 307°
2026-05-09 21:45 56.90758 10.60471 4114 ft 96 kts 307°
2026-05-09 21:45 56.91200 10.59566 4084 ft 97 kts 304°
2026-05-09 21:46 56.91624 10.58628 4087 ft 94 kts 303°
2026-05-09 21:46 56.92028 10.57682 4074 ft 94 kts 301°
2026-05-09 21:46 56.92409 10.56726 4076 ft 93 kts 299°
2026-05-09 21:46 56.92754 10.55726 4052 ft 92 kts 291°
2026-05-09 21:47 56.93046 10.54684 4032 ft 91 kts 285°
2026-05-09 21:47 56.93253 10.53601 4022 ft 89 kts 279°
2026-05-09 21:47 56.93401 10.52499 4006 ft 88 kts 276°
2026-05-09 21:47 56.93512 10.51396 3994 ft 88 kts 273°
2026-05-09 21:48 56.93596 10.50293 3981 ft 88 kts 271°
2026-05-09 21:48 56.93682 10.49195 3968 ft 88 kts 275°
2026-05-09 21:48 56.93786 10.48080 3963 ft 89 kts 275°
2026-05-09 21:48 56.93884 10.46970 3967 ft 88 kts 273°
2026-05-09 21:49 56.93985 10.45853 3964 ft 87 kts 272°
2026-05-09 21:49 56.94103 10.44753 3933 ft 89 kts 272°
2026-05-09 21:49 56.94158 10.43638 3925 ft 87 kts 266°
2026-05-09 21:49 56.94176 10.42532 3916 ft 87 kts 266°
2026-05-09 21:50 56.94164 10.41428 3896 ft 86 kts 261°
2026-05-09 21:50 56.94134 10.40340 3883 ft 86 kts 264°
2026-05-09 21:50 56.94262 10.38135 3845 ft 88 kts 271°
2026-05-09 21:51 56.94291 10.37027 3828 ft 88 kts 268°
2026-05-09 21:51 56.94345 10.35914 3813 ft 88 kts 270°
2026-05-09 21:51 56.94416 10.34800 3806 ft 87 kts 269°
2026-05-09 21:51 56.94492 10.33696 3787 ft 88 kts 272°
2026-05-09 21:52 56.94555 10.32595 3762 ft 88 kts 274°
2026-05-09 21:52 56.94657 10.31486 3738 ft 87 kts 265°
2026-05-09 21:52 56.94657 10.30389 3727 ft 86 kts 262°
2026-05-09 21:52 56.94616 10.29302 3722 ft 85 kts 260°
2026-05-09 21:53 56.94571 10.28206 3707 ft 86 kts 258°
2026-05-09 21:53 56.94513 10.27116 3692 ft 86 kts 262°
2026-05-09 21:53 56.94493 10.26015 3699 ft 86 kts 262°
2026-05-09 21:54 56.94480 10.23833 3699 ft 87 kts 268°
2026-05-09 21:54 56.94561 10.22711 3669 ft 89 kts 272°
2026-05-09 21:54 56.94416 10.21676 3542 ft 89 kts 238°
2026-05-09 21:54 56.94192 10.20678 3548 ft 85 kts 242°
2026-05-09 21:55 56.93977 10.19693 3563 ft 82 kts 244°
2026-05-09 21:55 56.93770 10.18712 3574 ft 82 kts 246°
2026-05-09 21:55 56.93650 10.17677 3572 ft 85 kts 255°
2026-05-09 21:55 56.93574 10.16614 3586 ft 84 kts 258°
2026-05-09 21:56 56.93532 10.15551 3568 ft 85 kts 262°
2026-05-09 21:56 56.93497 10.14478 3588 ft 84 kts 261°
2026-05-09 21:56 56.93441 10.13408 3594 ft 84 kts 259°
2026-05-09 21:56 56.93414 10.12334 3599 ft 84 kts 262°
2026-05-09 21:57 56.93359 10.11269 3601 ft 84 kts 258°
2026-05-09 21:57 56.93359 10.10182 3611 ft 86 kts 269°
2026-05-09 21:57 56.93441 10.09094 3627 ft 86 kts 272°
2026-05-09 21:57 56.93550 10.08008 3632 ft 87 kts 275°
2026-05-09 21:58 56.93741 10.06932 3617 ft 90 kts 285°
2026-05-09 21:58 56.94002 10.05914 3625 ft 90 kts 292°
2026-05-09 21:58 56.94272 10.04878 3619 ft 89 kts 288°
2026-05-09 21:58 56.94527 10.03846 3644 ft 88 kts 288°
2026-05-09 21:59 56.94780 10.02816 3659 ft 89 kts 292°
2026-05-09 21:59 56.95019 10.01769 3636 ft 89 kts 289°
2026-05-09 21:59 56.95280 10.00727 3604 ft 91 kts 298°
2026-05-09 21:59 56.95657 9.99796 3607 ft 91 kts 309°
2026-05-09 22:00 56.96105 9.98965 3579 ft 91 kts 313°
2026-05-09 22:00 56.96569 9.98164 3555 ft 92 kts 313°
2026-05-09 22:00 56.97040 9.97374 3546 ft 91 kts 313°
2026-05-09 22:00 56.97510 9.96605 3525 ft 92 kts 314°
2026-05-09 22:01 56.97979 9.95802 3491 ft 94 kts 314°
2026-05-09 22:01 56.98448 9.94982 3481 ft 92 kts 313°
2026-05-09 22:01 56.98951 9.94163 3352 ft 98 kts 314°
2026-05-09 22:01 56.99457 9.93322 3290 ft 98 kts 315°
2026-05-09 22:02 56.99800 9.92779 3243 ft 99 kts 321°
2026-05-09 22:02 57.00354 9.92022 3180 ft 98 kts 319°
2026-05-09 22:02 57.00881 9.91225 3129 ft 98 kts 315°
2026-05-09 22:02 57.01413 9.90422 3057 ft 99 kts 318°
2026-05-09 22:03 57.01958 9.89651 2992 ft 101 kts 320°
2026-05-09 22:03 57.02536 9.88874 2884 ft 102 kts 320°
2026-05-09 22:03 57.03104 9.88085 2763 ft 103 kts 319°
2026-05-09 22:03 57.03685 9.87315 2672 ft 102 kts 322°
2026-05-09 22:04 57.04230 9.86492 2566 ft 102 kts 309°
2026-05-09 22:04 57.04675 9.85473 2395 ft 100 kts 301°
2026-05-09 22:04 57.05059 9.84408 2223 ft 102 kts 297°
2026-05-09 22:04 57.05411 9.83281 2059 ft 100 kts 294°
2026-05-09 22:05 57.05740 9.82156 1866 ft 99 kts 289°
2026-05-09 22:05 57.05994 9.81031 1774 ft 91 kts 285°
2026-05-09 22:05 57.06257 9.80004 1707 ft 91 kts 310°
2026-05-09 22:05 57.06788 9.79353 1689 ft 90 kts 329°
2026-05-09 22:06 57.07402 9.79115 1565 ft 94 kts
2026-05-09 22:06 57.08045 9.79354 1378 ft 95 kts 21°
2026-05-09 22:06 57.08677 9.79777 1158 ft 96 kts 40°
2026-05-09 22:06 57.09122 9.80722 802 ft 93 kts 65°
2026-05-09 22:07 57.09304 9.81739 467 ft 83 kts 83°
2026-05-09 22:07 57.09349 9.82725 213 ft 74 kts 85°
2026-05-09 22:07 57.09392 9.83598 38 ft 60 kts 85°
2026-05-09 22:07 57.09432 9.84235 12 ft 40 kts 83°
2026-05-09 22:08 57.09452 9.84600 13 ft 22 kts 84°
2026-05-09 22:08 57.09468 9.84856 14 ft 24 kts 84°
2026-05-09 22:08 57.09492 9.85220 11 ft 39 kts 82°
2026-05-09 22:08 57.09510 9.85614 10 ft 22 kts 98°
2026-05-09 22:09 57.09421 9.85781 12 ft 17 kts 144°
2026-05-09 22:09 57.09368 9.85855 12 ft 10 kts 140°
2026-05-09 22:09 57.09274 9.85998 12 ft 21 kts 146°
2026-05-09 22:09 57.09109 9.86224 12 ft 41 kts 141°
2026-05-09 22:10 57.08911 9.86507 12 ft 31 kts 141°
2026-05-09 22:10 57.08761 9.86722 13 ft 23 kts 142°
2026-05-09 22:10 57.08674 9.86829 13 ft 6 kts 219°
2026-05-09 22:10 57.08608 9.86806 13 ft 0 kts 136°